createdAt,value
2022-09-21T00:00:48.556Z,72.38
2022-09-21T00:03:16.673Z,72.38
2022-09-21T00:05:44.244Z,72.12
2022-09-21T00:08:13.721Z,72.36
2022-09-21T00:10:41.351Z,72.33
2022-09-21T00:13:09.858Z,72.22
2022-09-21T00:15:40.579Z,72.13
2022-09-21T00:18:11.173Z,72.54
2022-09-21T00:20:43.467Z,73.88
2022-09-21T00:23:11.383Z,75.21
2022-09-21T00:25:39.056Z,75.06
2022-09-21T00:28:06.603Z,73.75
2022-09-21T00:30:34.101Z,73.43
2022-09-21T00:33:01.579Z,72.92
2022-09-21T00:35:30.370Z,72.38
2022-09-21T00:38:01.942Z,72.74
2022-09-21T00:40:29.582Z,72.62
2022-09-21T00:43:12.742Z,74.07
2022-09-21T00:45:40.354Z,72.96
2022-09-21T00:48:08.004Z,72.75
2022-09-21T00:50:41.934Z,72.55
2022-09-21T00:53:09.478Z,72.22
2022-09-21T00:55:41.908Z,72.74
2022-09-21T00:58:13.096Z,72.09
2022-09-21T01:00:41.286Z,71.97
2022-09-21T01:03:10.287Z,72.00
2022-09-21T01:05:39.152Z,71.87
2022-09-21T01:08:12.401Z,71.83
2022-09-21T01:10:47.729Z,72.02
2022-09-21T01:13:29.010Z,73.51
2022-09-21T01:16:03.239Z,72.53
2022-09-21T01:18:39.076Z,71.94
2022-09-21T01:21:20.675Z,71.57
2022-09-21T01:24:24.932Z,71.70
2022-09-21T01:27:18.387Z,71.92
2022-09-21T01:29:52.743Z,71.69
2022-09-21T01:32:25.122Z,71.84
2022-09-21T01:34:56.367Z,71.78
2022-09-21T01:37:28.835Z,71.23
2022-09-21T01:40:01.856Z,71.73
2022-09-21T01:42:32.764Z,71.69
2022-09-21T01:45:05.566Z,71.53
2022-09-21T01:47:33.117Z,71.63
2022-09-21T01:50:04.128Z,71.16
2022-09-21T01:52:37.867Z,71.51
2022-09-21T01:55:11.331Z,71.35
2022-09-21T01:57:44.212Z,71.24
2022-09-21T02:00:15.812Z,71.06
2022-09-21T02:02:50.335Z,71.28
2022-09-21T02:05:21.057Z,71.51
2022-09-21T02:07:51.149Z,71.64
2022-09-21T02:10:23.620Z,72.07
2022-09-21T02:12:56.819Z,72.25
2022-09-21T02:15:34.156Z,72.35
2022-09-21T02:18:07.881Z,72.51
2022-09-21T02:20:43.426Z,72.41
2022-09-21T02:23:17.677Z,73.81
2022-09-21T02:25:53.267Z,72.84
2022-09-21T02:28:29.699Z,72.63
2022-09-21T02:31:07.353Z,72.60
2022-09-21T02:33:45.516Z,72.60
2022-09-21T02:36:20.518Z,72.80
2022-09-21T02:38:54.418Z,72.73
2022-09-21T02:41:28.127Z,72.58
2022-09-21T02:44:03.010Z,76.71
2022-09-21T02:46:38.866Z,75.37
2022-09-21T02:49:11.270Z,73.24
2022-09-21T02:51:44.138Z,72.75
2022-09-21T02:54:14.378Z,73.20
2022-09-21T02:56:43.498Z,73.24
2022-09-21T02:59:11.723Z,72.22
2022-09-21T03:01:42.183Z,72.27
2022-09-21T03:04:09.900Z,72.16
2022-09-21T03:06:37.729Z,72.25
2022-09-21T03:09:05.453Z,72.19
2022-09-21T03:11:33.805Z,72.49
2022-09-21T03:14:02.339Z,71.99
2022-09-21T03:16:29.851Z,71.97
2022-09-21T03:18:58.657Z,73.45
2022-09-21T03:21:26.300Z,74.13
2022-09-21T03:23:53.968Z,73.15
2022-09-21T03:26:22.353Z,73.04
2022-09-21T03:28:50.304Z,73.63
2022-09-21T03:31:18.063Z,74.48
2022-09-21T03:33:45.584Z,73.89
2022-09-21T03:36:14.860Z,74.55
2022-09-21T03:38:42.635Z,73.52
2022-09-21T03:41:10.377Z,72.61
2022-09-21T03:43:37.915Z,72.42
2022-09-21T03:46:05.846Z,72.02
2022-09-21T03:48:33.605Z,73.38
2022-09-21T03:51:01.091Z,75.48
2022-09-21T03:53:29.899Z,76.07
2022-09-21T03:55:58.799Z,76.51
2022-09-21T03:58:26.289Z,75.72
2022-09-21T04:00:54.486Z,77.68
2022-09-21T04:03:22.268Z,79.34
2022-09-21T04:05:49.762Z,79.59
2022-09-21T04:08:17.260Z,78.31
2022-09-21T04:10:46.129Z,75.13
2022-09-21T04:13:14.200Z,73.65
2022-09-21T04:15:41.755Z,73.77
2022-09-21T04:18:09.600Z,74.43
2022-09-21T04:20:37.066Z,73.94
2022-09-21T04:23:04.579Z,73.56
2022-09-21T04:25:33.351Z,72.21
2022-09-21T04:28:02.703Z,75.18
2022-09-21T04:30:33.233Z,75.09
2022-09-21T04:33:04.407Z,73.82
2022-09-21T04:35:31.855Z,74.82
2022-09-21T04:37:59.664Z,73.67
2022-09-21T04:40:28.942Z,75.01
2022-09-21T04:43:03.761Z,73.94
2022-09-21T04:45:39.421Z,71.76
2022-09-21T04:48:23.083Z,72.27
2022-09-21T04:50:51.790Z,71.86
2022-09-21T04:53:19.340Z,71.92
2022-09-21T04:55:47.219Z,71.80
2022-09-21T04:58:14.694Z,72.04
2022-09-21T05:00:44.148Z,72.99
2022-09-21T05:03:11.929Z,72.52
2022-09-21T05:05:39.994Z,72.13
2022-09-21T05:08:07.888Z,72.16
2022-09-21T05:10:34.936Z,72.20
2022-09-21T05:13:03.018Z,72.19
2022-09-21T05:15:31.558Z,71.49
2022-09-21T05:18:01.325Z,71.47
2022-09-21T05:20:29.820Z,72.91
2022-09-21T05:23:02.635Z,76.07
2022-09-21T05:25:31.787Z,77.15
2022-09-21T05:28:00.438Z,75.33
2022-09-21T05:30:29.355Z,76.40
2022-09-21T05:33:04.049Z,78.61
2022-09-21T05:35:39.867Z,76.87
2022-09-21T05:38:14.832Z,73.94
2022-09-21T05:40:43.759Z,72.85
2022-09-21T05:43:12.755Z,72.38
2022-09-21T05:45:47.727Z,72.08
2022-09-21T05:48:21.733Z,72.46
2022-09-21T05:51:00.317Z,73.11
2022-09-21T05:53:59.116Z,71.77
2022-09-21T05:56:40.609Z,74.24
2022-09-21T05:59:23.202Z,76.18
2022-09-21T06:02:04.875Z,76.67
2022-09-21T06:04:35.240Z,75.94
2022-09-21T06:07:03.836Z,76.44
2022-09-21T06:09:32.340Z,78.27
2022-09-21T06:12:00.912Z,78.77
2022-09-21T06:14:29.265Z,76.85
2022-09-21T06:16:57.873Z,76.43
2022-09-21T06:19:25.920Z,77.32
2022-09-21T06:21:55.922Z,79.34
2022-09-21T06:24:25.247Z,78.58
2022-09-21T06:26:53.657Z,79.56
2022-09-21T06:29:23.708Z,79.97
2022-09-21T06:31:52.133Z,79.90
2022-09-21T06:34:20.475Z,79.78
2022-09-21T06:36:48.423Z,79.68
2022-09-21T06:39:17.899Z,79.95
2022-09-21T06:41:46.129Z,79.71
2022-09-21T06:44:14.577Z,79.93
2022-09-21T06:46:43.128Z,80.18
2022-09-21T06:49:11.642Z,79.47
2022-09-21T06:51:40.070Z,75.42
2022-09-21T06:54:08.723Z,74.22
2022-09-21T06:56:38.824Z,76.11
2022-09-21T06:59:08.688Z,76.31
2022-09-21T07:01:38.798Z,76.12
2022-09-21T07:04:09.908Z,75.46
2022-09-21T08:27:37.671Z,37.44
2022-09-21T08:34:14.337Z,36.29
2022-09-21T08:37:35.600Z,35.31
2022-09-21T08:46:01.399Z,33.35
2022-09-21T08:48:57.300Z,32.82
2022-09-21T08:51:41.479Z,31.78
2022-09-21T08:54:35.579Z,31.07
2022-09-21T08:57:28.901Z,29.98
2022-09-21T09:00:10.072Z,29.63
2022-09-21T09:03:05.495Z,29.85
2022-09-21T09:06:04.109Z,30.37
2022-09-21T09:12:21.375Z,29.35
2022-09-21T09:15:26.636Z,29.80
2022-09-21T09:18:09.578Z,30.58
2022-09-21T09:21:04.981Z,29.40
2022-09-21T09:23:43.892Z,30.68
2022-09-21T09:26:30.938Z,28.42
2022-09-21T09:29:10.203Z,28.38
2022-09-21T09:35:07.009Z,27.11
2022-09-21T10:08:57.012Z,26.66
2022-09-21T10:20:16.615Z,27.56
2022-09-21T10:23:07.868Z,28.33
2022-09-21T10:26:29.309Z,28.96
2022-09-21T10:30:00.336Z,30.56
2022-09-21T10:33:36.858Z,30.88
2022-09-21T10:37:00.773Z,26.80
2022-09-21T10:42:13.818Z,28.11
2022-09-21T11:16:59.445Z,34.25
2022-09-21T15:47:38.193Z,38.94
2022-09-21T15:50:18.262Z,39.09
2022-09-21T15:53:07.147Z,38.77
2022-09-21T17:10:39.325Z,43.36
2022-09-21T17:13:07.890Z,43.70
2022-09-21T17:15:37.003Z,44.43
2022-09-21T17:18:05.653Z,44.73
2022-09-21T17:20:36.005Z,44.91
2022-09-21T17:23:04.225Z,45.29
2022-09-21T17:25:32.786Z,45.55
2022-09-21T17:28:03.090Z,45.93
2022-09-21T17:30:31.920Z,46.26
2022-09-21T17:32:59.439Z,46.47
2022-09-21T17:35:31.828Z,47.14
2022-09-21T17:37:59.841Z,47.19
2022-09-21T17:40:28.176Z,47.41
2022-09-21T17:43:11.933Z,47.98
2022-09-21T17:45:46.845Z,48.19
2022-09-21T17:48:18.901Z,48.30
2022-09-21T17:50:46.822Z,48.32
2022-09-21T17:53:32.539Z,48.88
2022-09-21T17:56:02.726Z,49.23
2022-09-21T17:58:45.719Z,49.95
2022-09-21T18:01:27.330Z,50.07
2022-09-21T18:03:55.285Z,50.03
2022-09-21T18:06:23.680Z,50.36
2022-09-21T18:08:51.694Z,50.27
2022-09-21T18:11:41.724Z,51.20
2022-09-21T18:14:19.091Z,51.80
2022-09-21T18:16:54.479Z,51.56
2022-09-21T18:19:36.590Z,51.69
2022-09-21T18:22:23.817Z,52.10
2022-09-21T18:24:53.115Z,51.84
2022-09-21T18:27:23.011Z,51.71
2022-09-21T18:29:51.327Z,52.13
2022-09-21T18:32:43.446Z,52.32
2022-09-21T18:35:27.523Z,52.41
2022-09-21T18:38:15.432Z,52.86
2022-09-21T18:40:55.971Z,52.87
2022-09-21T18:43:34.103Z,52.92
2022-09-21T18:46:04.341Z,52.96
2022-09-21T18:48:51.675Z,53.63
2022-09-21T18:51:24.829Z,54.61
2022-09-21T18:53:55.961Z,57.19
2022-09-21T18:56:24.364Z,54.72
2022-09-21T18:58:52.686Z,54.19
2022-09-21T19:01:22.233Z,53.74
2022-09-21T19:06:59.921Z,54.10
2022-09-21T19:09:41.161Z,54.66
2022-09-21T19:12:20.028Z,55.12
2022-09-21T19:14:58.156Z,55.32
2022-09-21T19:17:44.146Z,55.66
2022-09-21T19:20:30.814Z,55.73
2022-09-21T19:23:21.901Z,55.92
2022-09-21T19:25:53.290Z,55.73
2022-09-21T19:28:44.926Z,56.23
2022-09-21T19:31:15.395Z,56.40
2022-09-21T19:33:50.509Z,56.27
2022-09-21T19:36:20.557Z,56.52
2022-09-21T19:38:48.713Z,56.65
2022-09-21T19:41:35.170Z,57.17
2022-09-21T19:44:16.021Z,57.12
2022-09-21T19:46:52.198Z,57.31
2022-09-21T19:49:21.649Z,57.12
2022-09-21T19:51:52.454Z,57.56
2022-09-21T19:54:39.179Z,57.67
2022-09-21T19:57:31.955Z,58.70
2022-09-21T20:00:00.970Z,58.49
2022-09-21T20:02:32.732Z,60.21
2022-09-21T20:05:07.803Z,58.72
2022-09-21T20:07:44.421Z,58.52
2022-09-21T20:10:37.979Z,58.50
2022-09-21T20:13:21.983Z,58.88
2022-09-21T20:15:56.468Z,58.89
2022-09-21T20:18:31.027Z,59.36
2022-09-21T20:20:59.260Z,59.11
2022-09-21T20:23:30.365Z,59.31
2022-09-21T20:26:04.370Z,59.50
2022-09-21T20:28:32.829Z,59.49
2022-09-21T20:31:00.762Z,59.75
2022-09-21T20:33:31.992Z,59.87
2022-09-21T20:36:00.293Z,59.52
2022-09-21T20:38:29.794Z,59.80
2022-09-21T20:40:58.599Z,59.54
2022-09-21T20:43:32.340Z,59.77
2022-09-21T20:46:00.539Z,59.74
2022-09-21T20:48:28.250Z,59.71
2022-09-21T20:50:57.253Z,62.78
2022-09-21T20:53:24.942Z,64.01
2022-09-21T20:55:59.024Z,62.54
2022-09-21T20:58:27.406Z,61.99
2022-09-21T21:00:58.939Z,61.56
2022-09-21T21:03:27.088Z,61.37
2022-09-21T21:05:54.976Z,61.21
2022-09-21T21:08:22.815Z,61.28
2022-09-21T21:10:50.537Z,61.24
2022-09-21T21:13:19.453Z,61.40
2022-09-21T21:15:47.134Z,61.27
2022-09-21T21:18:14.685Z,61.04
2022-09-21T21:20:42.313Z,61.01
2022-09-21T21:23:10.095Z,61.27
2022-09-21T21:25:37.745Z,61.01
2022-09-21T21:28:05.549Z,61.15
2022-09-21T21:30:34.563Z,61.07
2022-09-21T21:33:02.528Z,60.98
2022-09-21T21:35:31.394Z,61.43
2022-09-21T21:37:59.736Z,61.61
2022-09-21T21:40:27.596Z,61.82
2022-09-21T21:42:56.377Z,61.89
2022-09-21T21:45:24.234Z,62.22
2022-09-21T21:47:55.210Z,62.42
2022-09-21T21:50:22.927Z,62.19
2022-09-21T21:52:50.655Z,63.17
2022-09-21T21:55:18.351Z,62.49
2022-09-21T21:57:46.119Z,62.06
2022-09-21T22:00:14.669Z,62.13
2022-09-21T22:02:42.415Z,61.96
2022-09-21T22:05:11.516Z,62.01
2022-09-21T22:07:40.785Z,62.00
2022-09-21T22:10:09.864Z,62.04
2022-09-21T22:12:37.592Z,61.95
2022-09-21T22:15:05.766Z,62.05
2022-09-21T22:17:33.450Z,62.10
2022-09-21T22:20:01.087Z,62.06
2022-09-21T22:22:30.144Z,62.09
2022-09-21T22:24:57.856Z,62.39
2022-09-21T22:27:25.546Z,62.45
2022-09-21T22:29:53.266Z,62.38
2022-09-21T22:32:20.952Z,62.24
2022-09-21T22:34:50.531Z,62.37
2022-09-21T22:37:18.122Z,63.09
2022-09-21T22:39:47.119Z,63.31
2022-09-21T22:42:14.704Z,63.01
2022-09-21T22:44:42.482Z,63.32
2022-09-21T22:47:10.037Z,63.25
2022-09-21T22:49:37.884Z,65.20
2022-09-21T22:52:06.046Z,63.58
2022-09-21T22:54:33.754Z,67.32
2022-09-21T22:57:02.712Z,65.68
2022-09-21T22:59:30.282Z,63.94
2022-09-21T23:01:57.994Z,63.67
2022-09-21T23:04:25.673Z,63.25
2022-09-21T23:06:53.357Z,63.07
2022-09-21T23:09:22.504Z,63.50
2022-09-21T23:11:53.209Z,63.18
2022-09-21T23:14:23.486Z,63.29
2022-09-21T23:16:52.899Z,63.13
2022-09-21T23:19:20.634Z,63.04
2022-09-21T23:21:50.395Z,63.35
2022-09-21T23:24:18.655Z,63.12
2022-09-21T23:26:47.541Z,63.85
2022-09-21T23:29:16.529Z,67.85
2022-09-21T23:31:46.484Z,68.82
2022-09-21T23:34:16.551Z,67.42
2022-09-21T23:36:45.676Z,66.61
2022-09-21T23:39:14.509Z,65.17
2022-09-21T23:41:42.618Z,64.57
2022-09-21T23:44:10.604Z,64.95
2022-09-21T23:46:39.741Z,64.82
2022-09-21T23:49:09.206Z,68.19
2022-09-21T23:51:36.948Z,70.37
2022-09-21T23:54:05.012Z,71.20
2022-09-21T23:56:33.006Z,67.85
2022-09-21T23:59:01.309Z,65.39
